map of AXM home
AXM - Airport
Location
City:  Armenia, Quindío, Colombia
Name:El Edén International Airport
ICAO:SKAR
IATA:AXM

Details
Type:Airport (Aerodrome, Airfield)
Use:International (customs port of entry)
Latitude:4°27'12"N (4.453333)
Longitude:75°45'57"W (-75.765832)
Elevation:3990 ft (1216 m)
Variation:6.14°W (WMM2015 magnetic declination)
-0.15° annual change
Runways:1
Longest:7045 × 118 ft (2147 × 36 m), paved

Time
Time Zone:UTC-5
Local Time:

Weather
METAR:SKAR 140500Z 00000KT 9999 SCT025 19/19 A3004

Related Locations
Nearby:
Farthest:WIPO: 12439 mi / 20019 km
Batu Raja [Gatot Subrato], LA, ID

Find:

   beyond  
but within

Other Information
Maps:
NOTAMs:
Links:
Sources:

  
flag of Colombia
flag of Quindío
  

Sectional Chart

Flight Planning
at skyvector.com

Satellite Image

Google Maps Satellite view

 

Copyright © 2004-2017 Karl L. Swartz. All rights reserved.
The Great Circle Mapper name and logo are trademarks of the Great Circle Mapper.
All other trademarks mentioned herein belong to their respective owners.
Please see credits for attibutions and further copyright information.

  Follow gcmap on Facebook Follow gcmap on Twitter Follow gcmap on Google+ GCmap on LinkedIn

hCard Microformat

Geo Microformat